sensor_id;sensor_type;location;lat;lon;timestamp;P1;durP1;ratioP1;P2;durP2;ratioP2
68866;SDS011;56451;44.804;20.476;2022-12-17T00:01:53;39.80;;;21.50;;
68866;SDS011;56451;44.804;20.476;2022-12-17T00:04:38;45.58;;;23.90;;
68866;SDS011;56451;44.804;20.476;2022-12-17T00:07:22;43.65;;;24.02;;
68866;SDS011;56451;44.804;20.476;2022-12-17T00:10:07;43.13;;;22.77;;
68866;SDS011;56451;44.804;20.476;2022-12-17T00:12:51;44.22;;;23.90;;
68866;SDS011;56451;44.804;20.476;2022-12-17T00:15:36;48.93;;;25.43;;
68866;SDS011;56451;44.804;20.476;2022-12-17T00:18:20;47.05;;;25.98;;
68866;SDS011;56451;44.804;20.476;2022-12-17T00:21:05;45.80;;;25.50;;
68866;SDS011;56451;44.804;20.476;2022-12-17T00:23:49;44.10;;;25.05;;
68866;SDS011;56451;44.804;20.476;2022-12-17T00:26:34;45.75;;;24.42;;
68866;SDS011;56451;44.804;20.476;2022-12-17T00:29:19;43.47;;;23.93;;
68866;SDS011;56451;44.804;20.476;2022-12-17T00:32:04;42.95;;;23.17;;
68866;SDS011;56451;44.804;20.476;2022-12-17T00:34:49;42.92;;;23.00;;
68866;SDS011;56451;44.804;20.476;2022-12-17T00:37:34;42.42;;;22.27;;
68866;SDS011;56451;44.804;20.476;2022-12-17T00:40:20;45.72;;;22.42;;
68866;SDS011;56451;44.804;20.476;2022-12-17T00:43:05;38.27;;;22.17;;
68866;SDS011;56451;44.804;20.476;2022-12-17T00:45:52;46.30;;;23.02;;
68866;SDS011;56451;44.804;20.476;2022-12-17T00:48:37;43.90;;;22.70;;
68866;SDS011;56451;44.804;20.476;2022-12-17T00:51:22;42.17;;;22.88;;
68866;SDS011;56451;44.804;20.476;2022-12-17T00:54:07;40.70;;;22.27;;
68866;SDS011;56451;44.804;20.476;2022-12-17T00:56:52;44.77;;;22.80;;
68866;SDS011;56451;44.804;20.476;2022-12-17T00:59:36;43.60;;;22.88;;
68866;SDS011;56451;44.804;20.476;2022-12-17T01:02:22;46.47;;;24.50;;
68866;SDS011;56451;44.804;20.476;2022-12-17T01:05:07;40.60;;;21.77;;
68866;SDS011;56451;44.804;20.476;2022-12-17T01:07:53;41.15;;;21.52;;
68866;SDS011;56451;44.804;20.476;2022-12-17T01:10:38;38.73;;;22.27;;
68866;SDS011;56451;44.804;20.476;2022-12-17T01:13:23;38.55;;;21.98;;
68866;SDS011;56451;44.804;20.476;2022-12-17T01:16:15;43.22;;;21.85;;
68866;SDS011;56451;44.804;20.476;2022-12-17T01:19:00;38.20;;;21.00;;
68866;SDS011;56451;44.804;20.476;2022-12-17T01:21:44;47.20;;;22.90;;
68866;SDS011;56451;44.804;20.476;2022-12-17T01:24:29;42.53;;;22.03;;
68866;SDS011;56451;44.804;20.476;2022-12-17T01:27:13;45.40;;;22.15;;
68866;SDS011;56451;44.804;20.476;2022-12-17T01:29:58;44.33;;;22.40;;
68866;SDS011;56451;44.804;20.476;2022-12-17T01:32:42;39.95;;;21.58;;
68866;SDS011;56451;44.804;20.476;2022-12-17T01:35:27;40.95;;;22.42;;
68866;SDS011;56451;44.804;20.476;2022-12-17T01:38:12;37.10;;;19.97;;
68866;SDS011;56451;44.804;20.476;2022-12-17T01:40:57;37.70;;;20.83;;
68866;SDS011;56451;44.804;20.476;2022-12-17T01:43:42;38.90;;;20.60;;
68866;SDS011;56451;44.804;20.476;2022-12-17T01:46:27;37.63;;;20.65;;
68866;SDS011;56451;44.804;20.476;2022-12-17T01:49:15;33.13;;;19.80;;
68866;SDS011;56451;44.804;20.476;2022-12-17T01:52:01;34.70;;;19.00;;
68866;SDS011;56451;44.804;20.476;2022-12-17T01:54:45;31.88;;;17.50;;
68866;SDS011;56451;44.804;20.476;2022-12-17T01:57:45;33.17;;;19.20;;
68866;SDS011;56451;44.804;20.476;2022-12-17T02:00:29;33.70;;;19.27;;
68866;SDS011;56451;44.804;20.476;2022-12-17T02:03:14;35.83;;;20.30;;
68866;SDS011;56451;44.804;20.476;2022-12-17T02:12:10;30.75;;;18.70;;
68866;SDS011;56451;44.804;20.476;2022-12-17T02:15:22;30.45;;;17.80;;
68866;SDS011;56451;44.804;20.476;2022-12-17T02:18:13;28.95;;;16.63;;
68866;SDS011;56451;44.804;20.476;2022-12-17T02:21:09;28.43;;;16.43;;
68866;SDS011;56451;44.804;20.476;2022-12-17T02:26:53;28.95;;;17.52;;
68866;SDS011;56451;44.804;20.476;2022-12-17T02:29:40;26.63;;;16.02;;
68866;SDS011;56451;44.804;20.476;2022-12-17T02:32:29;22.33;;;15.35;;
68866;SDS011;56451;44.804;20.476;2022-12-17T02:35:18;27.83;;;17.37;;
68866;SDS011;56451;44.804;20.476;2022-12-17T02:38:18;26.15;;;16.23;;
68866;SDS011;56451;44.804;20.476;2022-12-17T02:41:04;21.65;;;13.27;;
68866;SDS011;56451;44.804;20.476;2022-12-17T02:43:51;24.00;;;14.73;;
68866;SDS011;56451;44.804;20.476;2022-12-17T02:46:38;25.20;;;13.18;;
68866;SDS011;56451;44.804;20.476;2022-12-17T02:49:24;25.90;;;14.17;;
68866;SDS011;56451;44.804;20.476;2022-12-17T02:52:09;26.95;;;15.82;;
68866;SDS011;56451;44.804;20.476;2022-12-17T02:54:55;25.17;;;14.23;;
68866;SDS011;56451;44.804;20.476;2022-12-17T02:57:41;24.48;;;14.52;;
68866;SDS011;56451;44.804;20.476;2022-12-17T03:00:26;25.73;;;14.68;;
68866;SDS011;56451;44.804;20.476;2022-12-17T03:03:11;28.43;;;16.33;;
68866;SDS011;56451;44.804;20.476;2022-12-17T03:05:55;25.48;;;15.38;;
68866;SDS011;56451;44.804;20.476;2022-12-17T03:08:40;24.08;;;15.70;;
68866;SDS011;56451;44.804;20.476;2022-12-17T03:11:28;25.33;;;14.73;;
68866;SDS011;56451;44.804;20.476;2022-12-17T03:14:13;26.15;;;15.13;;
68866;SDS011;56451;44.804;20.476;2022-12-17T03:16:58;23.53;;;14.10;;
68866;SDS011;56451;44.804;20.476;2022-12-17T03:19:43;22.90;;;13.70;;
68866;SDS011;56451;44.804;20.476;2022-12-17T03:22:28;23.08;;;13.20;;
68866;SDS011;56451;44.804;20.476;2022-12-17T03:25:13;19.77;;;12.00;;
68866;SDS011;56451;44.804;20.476;2022-12-17T03:28:04;19.20;;;11.57;;
68866;SDS011;56451;44.804;20.476;2022-12-17T03:30:51;20.43;;;11.27;;
68866;SDS011;56451;44.804;20.476;2022-12-17T03:33:36;20.83;;;12.05;;
68866;SDS011;56451;44.804;20.476;2022-12-17T03:36:20;15.98;;;9.60;;
68866;SDS011;56451;44.804;20.476;2022-12-17T03:39:05;17.08;;;9.95;;
68866;SDS011;56451;44.804;20.476;2022-12-17T03:41:49;16.35;;;9.73;;
68866;SDS011;56451;44.804;20.476;2022-12-17T03:44:34;17.43;;;10.43;;
68866;SDS011;56451;44.804;20.476;2022-12-17T03:47:18;16.30;;;11.00;;
68866;SDS011;56451;44.804;20.476;2022-12-17T03:50:03;20.33;;;12.07;;
68866;SDS011;56451;44.804;20.476;2022-12-17T03:52:48;23.15;;;13.25;;
68866;SDS011;56451;44.804;20.476;2022-12-17T03:55:43;30.77;;;16.50;;
68866;SDS011;56451;44.804;20.476;2022-12-17T03:58:27;32.80;;;17.47;;
68866;SDS011;56451;44.804;20.476;2022-12-17T04:01:11;33.28;;;18.30;;
68866;SDS011;56451;44.804;20.476;2022-12-17T04:03:56;35.92;;;19.35;;
68866;SDS011;56451;44.804;20.476;2022-12-17T04:06:41;37.85;;;19.63;;
68866;SDS011;56451;44.804;20.476;2022-12-17T04:09:25;36.05;;;18.63;;
68866;SDS011;56451;44.804;20.476;2022-12-17T04:12:09;36.80;;;19.23;;
68866;SDS011;56451;44.804;20.476;2022-12-17T04:14:54;33.20;;;18.17;;
68866;SDS011;56451;44.804;20.476;2022-12-17T04:17:38;32.00;;;18.52;;
68866;SDS011;56451;44.804;20.476;2022-12-17T04:20:23;39.05;;;19.00;;
68866;SDS011;56451;44.804;20.476;2022-12-17T04:23:07;31.85;;;18.40;;
68866;SDS011;56451;44.804;20.476;2022-12-17T04:25:51;29.23;;;17.60;;
68866;SDS011;56451;44.804;20.476;2022-12-17T04:28:36;27.75;;;16.10;;
68866;SDS011;56451;44.804;20.476;2022-12-17T04:31:20;24.85;;;14.10;;
68866;SDS011;56451;44.804;20.476;2022-12-17T04:34:05;23.77;;;13.85;;
68866;SDS011;56451;44.804;20.476;2022-12-17T04:36:49;21.45;;;13.70;;
68866;SDS011;56451;44.804;20.476;2022-12-17T04:39:33;24.63;;;13.87;;
68866;SDS011;56451;44.804;20.476;2022-12-17T04:42:18;13.77;;;7.53;;
68866;SDS011;56451;44.804;20.476;2022-12-17T04:45:02;8.98;;;5.07;;
68866;SDS011;56451;44.804;20.476;2022-12-17T04:47:47;6.20;;;4.05;;
68866;SDS011;56451;44.804;20.476;2022-12-17T04:50:31;6.18;;;4.15;;
68866;SDS011;56451;44.804;20.476;2022-12-17T04:53:15;6.87;;;5.03;;
68866;SDS011;56451;44.804;20.476;2022-12-17T04:56:00;7.72;;;5.20;;
68866;SDS011;56451;44.804;20.476;2022-12-17T04:58:45;8.63;;;5.20;;
68866;SDS011;56451;44.804;20.476;2022-12-17T05:01:30;6.85;;;5.10;;
68866;SDS011;56451;44.804;20.476;2022-12-17T05:04:14;9.27;;;6.10;;
68866;SDS011;56451;44.804;20.476;2022-12-17T05:06:58;8.53;;;5.47;;
68866;SDS011;56451;44.804;20.476;2022-12-17T05:09:43;10.40;;;6.43;;
68866;SDS011;56451;44.804;20.476;2022-12-17T05:12:27;8.93;;;5.88;;
68866;SDS011;56451;44.804;20.476;2022-12-17T05:15:11;8.77;;;5.80;;
68866;SDS011;56451;44.804;20.476;2022-12-17T05:18:03;8.77;;;5.95;;
68866;SDS011;56451;44.804;20.476;2022-12-17T05:21:08;8.83;;;5.63;;
68866;SDS011;56451;44.804;20.476;2022-12-17T05:23:52;9.02;;;6.00;;
68866;SDS011;56451;44.804;20.476;2022-12-17T05:26:37;9.60;;;5.93;;
68866;SDS011;56451;44.804;20.476;2022-12-17T05:29:21;10.77;;;6.68;;
68866;SDS011;56451;44.804;20.476;2022-12-17T05:32:06;10.23;;;6.30;;
68866;SDS011;56451;44.804;20.476;2022-12-17T05:34:50;11.27;;;7.53;;
68866;SDS011;56451;44.804;20.476;2022-12-17T05:37:34;11.65;;;7.38;;
68866;SDS011;56451;44.804;20.476;2022-12-17T05:40:19;15.40;;;9.15;;
68866;SDS011;56451;44.804;20.476;2022-12-17T05:43:04;14.52;;;9.30;;
68866;SDS011;56451;44.804;20.476;2022-12-17T05:45:49;14.38;;;8.88;;
68866;SDS011;56451;44.804;20.476;2022-12-17T05:48:35;15.40;;;9.57;;
68866;SDS011;56451;44.804;20.476;2022-12-17T05:51:20;14.25;;;8.68;;
68866;SDS011;56451;44.804;20.476;2022-12-17T05:54:05;17.40;;;9.75;;
68866;SDS011;56451;44.804;20.476;2022-12-17T05:56:50;17.38;;;10.70;;
68866;SDS011;56451;44.804;20.476;2022-12-17T05:59:35;19.65;;;10.07;;
68866;SDS011;56451;44.804;20.476;2022-12-17T06:02:19;19.80;;;10.57;;
68866;SDS011;56451;44.804;20.476;2022-12-17T06:05:04;22.67;;;11.43;;
68866;SDS011;56451;44.804;20.476;2022-12-17T06:07:48;21.63;;;11.93;;
68866;SDS011;56451;44.804;20.476;2022-12-17T06:10:33;21.13;;;12.02;;
68866;SDS011;56451;44.804;20.476;2022-12-17T06:13:17;26.60;;;12.35;;
68866;SDS011;56451;44.804;20.476;2022-12-17T06:16:09;20.40;;;10.27;;
68866;SDS011;56451;44.804;20.476;2022-12-17T06:18:54;18.58;;;10.35;;
68866;SDS011;56451;44.804;20.476;2022-12-17T06:21:38;16.55;;;9.50;;
68866;SDS011;56451;44.804;20.476;2022-12-17T06:24:23;15.02;;;8.90;;
68866;SDS011;56451;44.804;20.476;2022-12-17T06:27:07;12.85;;;7.25;;
68866;SDS011;56451;44.804;20.476;2022-12-17T06:29:52;14.03;;;7.30;;
68866;SDS011;56451;44.804;20.476;2022-12-17T06:32:36;21.45;;;10.88;;
68866;SDS011;56451;44.804;20.476;2022-12-17T06:35:21;21.45;;;11.48;;
68866;SDS011;56451;44.804;20.476;2022-12-17T06:38:05;14.88;;;7.72;;
68866;SDS011;56451;44.804;20.476;2022-12-17T06:40:51;19.08;;;9.77;;
68866;SDS011;56451;44.804;20.476;2022-12-17T06:43:35;15.13;;;8.80;;
68866;SDS011;56451;44.804;20.476;2022-12-17T06:46:20;19.02;;;9.38;;
68866;SDS011;56451;44.804;20.476;2022-12-17T06:49:05;15.93;;;9.63;;
68866;SDS011;56451;44.804;20.476;2022-12-17T06:51:50;18.02;;;9.68;;
68866;SDS011;56451;44.804;20.476;2022-12-17T06:54:35;20.27;;;9.65;;
68866;SDS011;56451;44.804;20.476;2022-12-17T06:57:19;19.77;;;9.30;;
68866;SDS011;56451;44.804;20.476;2022-12-17T07:00:04;19.05;;;9.90;;
68866;SDS011;56451;44.804;20.476;2022-12-17T07:02:53;18.42;;;9.90;;
68866;SDS011;56451;44.804;20.476;2022-12-17T07:05:41;23.40;;;10.10;;
68866;SDS011;56451;44.804;20.476;2022-12-17T07:08:26;21.90;;;10.43;;
68866;SDS011;56451;44.804;20.476;2022-12-17T07:11:10;19.57;;;9.87;;
68866;SDS011;56451;44.804;20.476;2022-12-17T07:13:55;19.77;;;10.55;;
68866;SDS011;56451;44.804;20.476;2022-12-17T07:16:39;20.25;;;10.52;;
68866;SDS011;56451;44.804;20.476;2022-12-17T07:19:24;19.05;;;10.30;;
68866;SDS011;56451;44.804;20.476;2022-12-17T07:22:08;15.90;;;9.18;;
68866;SDS011;56451;44.804;20.476;2022-12-17T07:25:12;17.43;;;9.27;;
68866;SDS011;56451;44.804;20.476;2022-12-17T07:27:57;18.45;;;9.73;;
68866;SDS011;56451;44.804;20.476;2022-12-17T07:30:41;17.40;;;9.63;;
68866;SDS011;56451;44.804;20.476;2022-12-17T07:33:26;20.13;;;10.02;;
68866;SDS011;56451;44.804;20.476;2022-12-17T07:36:10;16.42;;;8.13;;
68866;SDS011;56451;44.804;20.476;2022-12-17T07:38:55;16.70;;;9.20;;
68866;SDS011;56451;44.804;20.476;2022-12-17T07:41:39;17.00;;;9.23;;
68866;SDS011;56451;44.804;20.476;2022-12-17T07:44:24;24.55;;;12.32;;
68866;SDS011;56451;44.804;20.476;2022-12-17T07:47:08;25.23;;;12.35;;
68866;SDS011;56451;44.804;20.476;2022-12-17T07:49:52;27.27;;;14.10;;
68866;SDS011;56451;44.804;20.476;2022-12-17T07:52:37;30.10;;;13.80;;
68866;SDS011;56451;44.804;20.476;2022-12-17T07:55:21;34.47;;;16.60;;
68866;SDS011;56451;44.804;20.476;2022-12-17T07:58:06;34.20;;;16.70;;
68866;SDS011;56451;44.804;20.476;2022-12-17T08:00:53;33.33;;;15.30;;
68866;SDS011;56451;44.804;20.476;2022-12-17T08:03:38;34.80;;;16.90;;
68866;SDS011;56451;44.804;20.476;2022-12-17T08:06:22;35.73;;;15.93;;
68866;SDS011;56451;44.804;20.476;2022-12-17T08:09:07;34.25;;;17.20;;
68866;SDS011;56451;44.804;20.476;2022-12-17T08:11:51;28.75;;;14.55;;
68866;SDS011;56451;44.804;20.476;2022-12-17T08:14:36;26.65;;;13.38;;
68866;SDS011;56451;44.804;20.476;2022-12-17T08:17:20;23.52;;;12.98;;
68866;SDS011;56451;44.804;20.476;2022-12-17T08:20:04;27.23;;;13.23;;
68866;SDS011;56451;44.804;20.476;2022-12-17T08:22:49;29.30;;;14.02;;
68866;SDS011;56451;44.804;20.476;2022-12-17T08:25:33;24.65;;;12.68;;
68866;SDS011;56451;44.804;20.476;2022-12-17T08:28:18;26.50;;;14.15;;
68866;SDS011;56451;44.804;20.476;2022-12-17T08:31:02;31.10;;;15.50;;
68866;SDS011;56451;44.804;20.476;2022-12-17T08:33:46;31.83;;;15.57;;
68866;SDS011;56451;44.804;20.476;2022-12-17T08:36:30;29.95;;;14.93;;
68866;SDS011;56451;44.804;20.476;2022-12-17T08:39:15;29.23;;;15.80;;
68866;SDS011;56451;44.804;20.476;2022-12-17T09:45:02;45.25;;;20.73;;
68866;SDS011;56451;44.804;20.476;2022-12-17T09:51:40;44.93;;;20.53;;
68866;SDS011;56451;44.804;20.476;2022-12-17T09:57:22;49.55;;;21.63;;
68866;SDS011;56451;44.804;20.476;2022-12-17T10:00:24;50.63;;;21.95;;
68866;SDS011;56451;44.804;20.476;2022-12-17T10:03:14;50.22;;;23.15;;
68866;SDS011;56451;44.804;20.476;2022-12-17T10:06:15;45.40;;;22.07;;
68866;SDS011;56451;44.804;20.476;2022-12-17T10:09:08;48.42;;;22.67;;
68866;SDS011;56451;44.804;20.476;2022-12-17T10:11:56;48.65;;;22.77;;
68866;SDS011;56451;44.804;20.476;2022-12-17T10:14:43;47.35;;;22.48;;
68866;SDS011;56451;44.804;20.476;2022-12-17T10:17:27;45.83;;;22.42;;
68866;SDS011;56451;44.804;20.476;2022-12-17T10:20:23;46.17;;;21.40;;
68866;SDS011;56451;44.804;20.476;2022-12-17T10:23:28;45.78;;;21.45;;
68866;SDS011;56451;44.804;20.476;2022-12-17T10:26:32;46.85;;;22.65;;
68866;SDS011;56451;44.804;20.476;2022-12-17T10:29:23;40.90;;;20.30;;
68866;SDS011;56451;44.804;20.476;2022-12-17T10:37:58;35.25;;;17.27;;
68866;SDS011;56451;44.804;20.476;2022-12-17T10:40:43;40.13;;;19.38;;
68866;SDS011;56451;44.804;20.476;2022-12-17T10:43:32;40.35;;;19.45;;
68866;SDS011;56451;44.804;20.476;2022-12-17T10:46:25;39.00;;;18.80;;
68866;SDS011;56451;44.804;20.476;2022-12-17T10:49:21;42.63;;;18.83;;
68866;SDS011;56451;44.804;20.476;2022-12-17T10:55:17;41.10;;;18.80;;
68866;SDS011;56451;44.804;20.476;2022-12-17T10:58:10;38.63;;;19.13;;
68866;SDS011;56451;44.804;20.476;2022-12-17T11:01:00;44.53;;;19.33;;
68866;SDS011;56451;44.804;20.476;2022-12-17T11:03:53;39.43;;;18.17;;
68866;SDS011;56451;44.804;20.476;2022-12-17T11:06:43;40.58;;;17.92;;
68866;SDS011;56451;44.804;20.476;2022-12-17T11:09:46;39.33;;;19.00;;
68866;SDS011;56451;44.804;20.476;2022-12-17T11:12:35;39.80;;;19.42;;
68866;SDS011;56451;44.804;20.476;2022-12-17T11:15:31;39.15;;;18.40;;
68866;SDS011;56451;44.804;20.476;2022-12-17T11:18:26;39.80;;;19.03;;
68866;SDS011;56451;44.804;20.476;2022-12-17T11:21:18;35.08;;;17.45;;
68866;SDS011;56451;44.804;20.476;2022-12-17T11:24:09;39.60;;;19.38;;
68866;SDS011;56451;44.804;20.476;2022-12-17T11:26:57;34.00;;;17.83;;
68866;SDS011;56451;44.804;20.476;2022-12-17T11:29:45;39.70;;;19.73;;
68866;SDS011;56451;44.804;20.476;2022-12-17T11:32:32;36.67;;;17.97;;
68866;SDS011;56451;44.804;20.476;2022-12-17T11:35:33;34.38;;;17.75;;
68866;SDS011;56451;44.804;20.476;2022-12-17T11:58:59;38.00;;;19.00;;
68866;SDS011;56451;44.804;20.476;2022-12-17T12:02:00;39.07;;;19.93;;
68866;SDS011;56451;44.804;20.476;2022-12-17T12:08:23;42.60;;;19.20;;
68866;SDS011;56451;44.804;20.476;2022-12-17T12:20:03;39.05;;;20.20;;
68866;SDS011;56451;44.804;20.476;2022-12-17T12:26:26;38.75;;;19.55;;
68866;SDS011;56451;44.804;20.476;2022-12-17T12:32:13;46.37;;;20.83;;
68866;SDS011;56451;44.804;20.476;2022-12-17T12:35:03;43.90;;;19.23;;
68866;SDS011;56451;44.804;20.476;2022-12-17T12:37:48;43.63;;;19.92;;
68866;SDS011;56451;44.804;20.476;2022-12-17T12:40:41;45.78;;;20.27;;
68866;SDS011;56451;44.804;20.476;2022-12-17T12:43:33;39.92;;;18.60;;
68866;SDS011;56451;44.804;20.476;2022-12-17T12:46:25;43.23;;;20.17;;
68866;SDS011;56451;44.804;20.476;2022-12-17T12:52:11;40.67;;;18.85;;
68866;SDS011;56451;44.804;20.476;2022-12-17T12:55:02;36.00;;;17.77;;
68866;SDS011;56451;44.804;20.476;2022-12-17T13:03:30;37.45;;;19.23;;
68866;SDS011;56451;44.804;20.476;2022-12-17T13:14:29;43.93;;;20.93;;
68866;SDS011;56451;44.804;20.476;2022-12-17T13:17:15;47.72;;;22.75;;
68866;SDS011;56451;44.804;20.476;2022-12-17T13:24:48;46.70;;;21.50;;
68866;SDS011;56451;44.804;20.476;2022-12-17T13:27:28;41.33;;;19.77;;
68866;SDS011;56451;44.804;20.476;2022-12-17T13:32:46;42.85;;;20.95;;
68866;SDS011;56451;44.804;20.476;2022-12-17T13:41:27;45.00;;;21.17;;
68866;SDS011;56451;44.804;20.476;2022-12-17T13:43:57;43.65;;;20.95;;
68866;SDS011;56451;44.804;20.476;2022-12-17T13:46:27;42.58;;;21.25;;
68866;SDS011;56451;44.804;20.476;2022-12-17T13:51:47;43.90;;;21.35;;
68866;SDS011;56451;44.804;20.476;2022-12-17T13:54:26;44.50;;;22.05;;
68866;SDS011;56451;44.804;20.476;2022-12-17T13:56:52;47.05;;;23.17;;
68866;SDS011;56451;44.804;20.476;2022-12-17T13:59:20;43.92;;;21.63;;
68866;SDS011;56451;44.804;20.476;2022-12-17T14:01:49;47.58;;;21.65;;
68866;SDS011;56451;44.804;20.476;2022-12-17T14:04:23;44.00;;;21.73;;
68866;SDS011;56451;44.804;20.476;2022-12-17T14:06:53;38.25;;;18.58;;
68866;SDS011;56451;44.804;20.476;2022-12-17T14:09:23;46.60;;;22.63;;
68866;SDS011;56451;44.804;20.476;2022-12-17T14:11:57;44.13;;;21.15;;
68866;SDS011;56451;44.804;20.476;2022-12-17T14:17:18;43.08;;;22.05;;
68866;SDS011;56451;44.804;20.476;2022-12-17T14:19:51;41.40;;;19.90;;
68866;SDS011;56451;44.804;20.476;2022-12-17T14:22:35;45.25;;;20.65;;
68866;SDS011;56451;44.804;20.476;2022-12-17T14:25:05;41.83;;;21.17;;
68866;SDS011;56451;44.804;20.476;2022-12-17T14:27:39;45.28;;;23.35;;
68866;SDS011;56451;44.804;20.476;2022-12-17T14:30:19;46.08;;;22.23;;
68866;SDS011;56451;44.804;20.476;2022-12-17T14:32:47;45.47;;;23.27;;
68866;SDS011;56451;44.804;20.476;2022-12-17T14:35:29;48.83;;;23.20;;
68866;SDS011;56451;44.804;20.476;2022-12-17T14:37:58;44.45;;;21.75;;
68866;SDS011;56451;44.804;20.476;2022-12-17T14:40:24;45.47;;;20.73;;
68866;SDS011;56451;44.804;20.476;2022-12-17T14:42:51;47.30;;;20.95;;
68866;SDS011;56451;44.804;20.476;2022-12-17T14:45:24;48.88;;;21.85;;
68866;SDS011;56451;44.804;20.476;2022-12-17T14:48:00;48.03;;;21.70;;
68866;SDS011;56451;44.804;20.476;2022-12-17T14:50:35;49.28;;;21.92;;
68866;SDS011;56451;44.804;20.476;2022-12-17T14:53:02;38.90;;;19.63;;
68866;SDS011;56451;44.804;20.476;2022-12-17T14:55:51;42.72;;;20.55;;
68866;SDS011;56451;44.804;20.476;2022-12-17T14:58:21;46.20;;;19.88;;
68866;SDS011;56451;44.804;20.476;2022-12-17T15:00:52;44.10;;;20.87;;
68866;SDS011;56451;44.804;20.476;2022-12-17T15:03:32;46.85;;;21.73;;
68866;SDS011;56451;44.804;20.476;2022-12-17T15:06:04;43.07;;;21.90;;
68866;SDS011;56451;44.804;20.476;2022-12-17T15:08:33;49.05;;;22.15;;
68866;SDS011;56451;44.804;20.476;2022-12-17T15:11:01;41.97;;;20.77;;
68866;SDS011;56451;44.804;20.476;2022-12-17T15:13:27;49.22;;;23.20;;
68866;SDS011;56451;44.804;20.476;2022-12-17T15:15:53;47.08;;;22.58;;
68866;SDS011;56451;44.804;20.476;2022-12-17T15:18:18;43.30;;;22.33;;
68866;SDS011;56451;44.804;20.476;2022-12-17T15:20:44;43.47;;;20.45;;
68866;SDS011;56451;44.804;20.476;2022-12-17T15:23:14;45.65;;;22.10;;
68866;SDS011;56451;44.804;20.476;2022-12-17T15:25:42;43.03;;;20.38;;
68866;SDS011;56451;44.804;20.476;2022-12-17T15:28:08;46.05;;;20.60;;
68866;SDS011;56451;44.804;20.476;2022-12-17T15:30:35;44.05;;;20.83;;
68866;SDS011;56451;44.804;20.476;2022-12-17T15:33:01;43.17;;;20.38;;
68866;SDS011;56451;44.804;20.476;2022-12-17T15:35:28;45.83;;;22.10;;
68866;SDS011;56451;44.804;20.476;2022-12-17T15:37:54;44.97;;;20.63;;
68866;SDS011;56451;44.804;20.476;2022-12-17T15:40:20;43.13;;;20.77;;
68866;SDS011;56451;44.804;20.476;2022-12-17T15:42:46;39.85;;;20.85;;
68866;SDS011;56451;44.804;20.476;2022-12-17T15:45:30;45.65;;;21.60;;
68866;SDS011;56451;44.804;20.476;2022-12-17T15:47:57;42.63;;;20.58;;
68866;SDS011;56451;44.804;20.476;2022-12-17T15:50:23;45.33;;;21.40;;
68866;SDS011;56451;44.804;20.476;2022-12-17T15:52:49;41.10;;;20.37;;
68866;SDS011;56451;44.804;20.476;2022-12-17T15:55:15;44.38;;;21.38;;
68866;SDS011;56451;44.804;20.476;2022-12-17T15:57:41;46.72;;;21.27;;
68866;SDS011;56451;44.804;20.476;2022-12-17T16:00:08;43.87;;;21.33;;
68866;SDS011;56451;44.804;20.476;2022-12-17T16:02:35;40.42;;;20.45;;
68866;SDS011;56451;44.804;20.476;2022-12-17T16:05:01;47.40;;;22.90;;
68866;SDS011;56451;44.804;20.476;2022-12-17T16:07:27;42.42;;;20.92;;
68866;SDS011;56451;44.804;20.476;2022-12-17T16:09:53;49.53;;;21.80;;
68866;SDS011;56451;44.804;20.476;2022-12-17T16:12:18;46.50;;;22.25;;
68866;SDS011;56451;44.804;20.476;2022-12-17T16:14:44;40.70;;;19.27;;
68866;SDS011;56451;44.804;20.476;2022-12-17T16:17:10;43.63;;;22.17;;
68866;SDS011;56451;44.804;20.476;2022-12-17T16:19:36;43.22;;;21.38;;
68866;SDS011;56451;44.804;20.476;2022-12-17T16:22:02;43.70;;;21.52;;
68866;SDS011;56451;44.804;20.476;2022-12-17T16:24:28;44.55;;;22.25;;
68866;SDS011;56451;44.804;20.476;2022-12-17T16:26:54;46.10;;;22.65;;
68866;SDS011;56451;44.804;20.476;2022-12-17T16:29:20;43.33;;;20.70;;
68866;SDS011;56451;44.804;20.476;2022-12-17T16:31:46;43.70;;;22.20;;
68866;SDS011;56451;44.804;20.476;2022-12-17T16:34:14;41.17;;;21.20;;
68866;SDS011;56451;44.804;20.476;2022-12-17T16:36:40;44.00;;;21.30;;
68866;SDS011;56451;44.804;20.476;2022-12-17T16:39:06;44.20;;;22.17;;
68866;SDS011;56451;44.804;20.476;2022-12-17T16:41:32;47.83;;;22.40;;
68866;SDS011;56451;44.804;20.476;2022-12-17T16:43:58;48.75;;;21.98;;
68866;SDS011;56451;44.804;20.476;2022-12-17T16:48:54;46.83;;;22.20;;
68866;SDS011;56451;44.804;20.476;2022-12-17T16:51:22;50.58;;;22.63;;
68866;SDS011;56451;44.804;20.476;2022-12-17T16:53:49;42.15;;;21.52;;
68866;SDS011;56451;44.804;20.476;2022-12-17T16:56:16;46.30;;;22.13;;
68866;SDS011;56451;44.804;20.476;2022-12-17T16:58:50;45.78;;;22.15;;
68866;SDS011;56451;44.804;20.476;2022-12-17T17:01:20;48.40;;;23.17;;
68866;SDS011;56451;44.804;20.476;2022-12-17T17:03:47;46.17;;;22.33;;
68866;SDS011;56451;44.804;20.476;2022-12-17T17:06:14;51.78;;;24.30;;
68866;SDS011;56451;44.804;20.476;2022-12-17T17:08:41;52.20;;;22.92;;
68866;SDS011;56451;44.804;20.476;2022-12-17T17:11:11;45.13;;;22.23;;
68866;SDS011;56451;44.804;20.476;2022-12-17T17:13:39;43.75;;;20.65;;
68866;SDS011;56451;44.804;20.476;2022-12-17T17:16:05;49.35;;;23.15;;
68866;SDS011;56451;44.804;20.476;2022-12-17T17:18:32;40.97;;;20.88;;
68866;SDS011;56451;44.804;20.476;2022-12-17T17:23:40;46.83;;;21.87;;
68866;SDS011;56451;44.804;20.476;2022-12-17T17:26:06;46.78;;;22.00;;
68866;SDS011;56451;44.804;20.476;2022-12-17T17:28:32;46.70;;;22.50;;
68866;SDS011;56451;44.804;20.476;2022-12-17T17:30:59;50.90;;;23.02;;
68866;SDS011;56451;44.804;20.476;2022-12-17T17:33:29;42.03;;;21.00;;
68866;SDS011;56451;44.804;20.476;2022-12-17T17:36:06;45.92;;;21.38;;
68866;SDS011;56451;44.804;20.476;2022-12-17T17:38:35;39.67;;;20.48;;
68866;SDS011;56451;44.804;20.476;2022-12-17T17:41:02;40.88;;;19.58;;
68866;SDS011;56451;44.804;20.476;2022-12-17T17:43:29;46.72;;;23.27;;
68866;SDS011;56451;44.804;20.476;2022-12-17T17:45:55;43.97;;;21.80;;
68866;SDS011;56451;44.804;20.476;2022-12-17T17:48:31;40.33;;;21.17;;
68866;SDS011;56451;44.804;20.476;2022-12-17T17:51:02;51.35;;;22.17;;
68866;SDS011;56451;44.804;20.476;2022-12-17T17:53:30;47.70;;;22.17;;
68866;SDS011;56451;44.804;20.476;2022-12-17T17:56:03;40.93;;;21.63;;
68866;SDS011;56451;44.804;20.476;2022-12-17T17:58:30;45.92;;;21.08;;
68866;SDS011;56451;44.804;20.476;2022-12-17T18:00:57;48.00;;;21.95;;
68866;SDS011;56451;44.804;20.476;2022-12-17T18:03:23;47.42;;;21.20;;
68866;SDS011;56451;44.804;20.476;2022-12-17T18:05:49;43.80;;;20.40;;
68866;SDS011;56451;44.804;20.476;2022-12-17T18:08:15;47.72;;;21.50;;
68866;SDS011;56451;44.804;20.476;2022-12-17T18:10:40;51.25;;;23.17;;
68866;SDS011;56451;44.804;20.476;2022-12-17T18:13:07;42.03;;;20.60;;
68866;SDS011;56451;44.804;20.476;2022-12-17T18:15:58;40.53;;;20.57;;
68866;SDS011;56451;44.804;20.476;2022-12-17T18:18:24;46.63;;;20.92;;
68866;SDS011;56451;44.804;20.476;2022-12-17T18:21:00;43.35;;;21.58;;